sensor_id;sensor_type;location;lat;lon;timestamp;pressure;altitude;pressure_sealevel;temperature;humidity
6134;BME280;3098;42.678;23.364;2023-08-24T00:00:53;95049.00;;;23.30;95.66
6134;BME280;3098;42.678;23.364;2023-08-24T00:03:25;94901.22;;;22.44;95.85
6134;BME280;3098;42.678;23.364;2023-08-24T00:05:53;95052.50;;;23.41;95.77
6134;BME280;3098;42.678;23.364;2023-08-24T00:08:20;95028.09;;;23.23;94.96
6134;BME280;3098;42.678;23.364;2023-08-24T00:10:47;94843.97;;;22.03;95.07
6134;BME280;3098;42.678;23.364;2023-08-24T00:13:16;95055.16;;;23.23;95.62
6134;BME280;3098;42.678;23.364;2023-08-24T00:15:45;95060.97;;;23.32;95.82
6134;BME280;3098;42.678;23.364;2023-08-24T00:18:12;94913.97;;;22.58;95.25
6134;BME280;3098;42.678;23.364;2023-08-24T00:20:39;95015.72;;;23.19;95.10
6134;BME280;3098;42.678;23.364;2023-08-24T00:23:07;95050.53;;;23.34;95.35
6134;BME280;3098;42.678;23.364;2023-08-24T00:25:34;94994.78;;;22.91;96.03
6134;BME280;3098;42.678;23.364;2023-08-24T00:28:02;95039.28;;;23.11;96.23
6134;BME280;3098;42.678;23.364;2023-08-24T00:30:32;94981.13;;;22.45;97.51
6134;BME280;3098;42.678;23.364;2023-08-24T00:33:00;94857.72;;;21.70;97.86
6134;BME280;3098;42.678;23.364;2023-08-24T00:35:27;95038.06;;;22.91;99.22
6134;BME280;3098;42.678;23.364;2023-08-24T00:37:54;95038.09;;;22.95;99.56
6134;BME280;3098;42.678;23.364;2023-08-24T00:40:21;95042.34;;;22.99;100.00
6134;BME280;3098;42.678;23.364;2023-08-24T00:42:50;95063.59;;;22.94;100.00
6134;BME280;3098;42.678;23.364;2023-08-24T00:45:18;94837.56;;;21.50;100.00
6134;BME280;3098;42.678;23.364;2023-08-24T00:47:47;95035.38;;;22.84;100.00
6134;BME280;3098;42.678;23.364;2023-08-24T00:50:16;95014.81;;;22.65;100.00
6134;BME280;3098;42.678;23.364;2023-08-24T00:52:44;95049.13;;;22.54;100.00
6134;BME280;3098;42.678;23.364;2023-08-24T00:55:14;95060.28;;;22.46;100.00
6134;BME280;3098;42.678;23.364;2023-08-24T00:57:43;95015.75;;;22.18;100.00
6134;BME280;3098;42.678;23.364;2023-08-24T01:00:11;95033.78;;;22.00;100.00
6134;BME280;3098;42.678;23.364;2023-08-24T01:02:39;94976.41;;;21.63;100.00
6134;BME280;3098;42.678;23.364;2023-08-24T01:05:08;95007.41;;;21.83;100.00
6134;BME280;3098;42.678;23.364;2023-08-24T01:07:38;95052.34;;;22.09;100.00
6134;BME280;3098;42.678;23.364;2023-08-24T01:10:07;94992.53;;;21.52;100.00
6134;BME280;3098;42.678;23.364;2023-08-24T01:12:43;95025.06;;;21.70;100.00
6134;BME280;3098;42.678;23.364;2023-08-24T01:15:17;95026.72;;;21.85;100.00
6134;BME280;3098;42.678;23.364;2023-08-24T01:17:47;95057.31;;;21.96;100.00
6134;BME280;3098;42.678;23.364;2023-08-24T01:20:18;94913.59;;;21.08;100.00
6134;BME280;3098;42.678;23.364;2023-08-24T01:22:53;95043.81;;;22.00;100.00
6134;BME280;3098;42.678;23.364;2023-08-24T01:25:34;95022.41;;;21.77;100.00
6134;BME280;3098;42.678;23.364;2023-08-24T01:28:06;95046.72;;;21.77;100.00
6134;BME280;3098;42.678;23.364;2023-08-24T01:30:34;95047.13;;;21.83;100.00
6134;BME280;3098;42.678;23.364;2023-08-24T01:33:02;95059.00;;;21.67;100.00
6134;BME280;3098;42.678;23.364;2023-08-24T01:35:30;94962.47;;;21.03;100.00
6134;BME280;3098;42.678;23.364;2023-08-24T01:37:58;95051.59;;;21.61;100.00
6134;BME280;3098;42.678;23.364;2023-08-24T01:40:36;95058.50;;;21.55;100.00
6134;BME280;3098;42.678;23.364;2023-08-24T01:43:10;94919.38;;;20.66;100.00
6134;BME280;3098;42.678;23.364;2023-08-24T01:45:41;95053.38;;;21.39;100.00
6134;BME280;3098;42.678;23.364;2023-08-24T01:48:10;95050.13;;;21.23;100.00
6134;BME280;3098;42.678;23.364;2023-08-24T01:50:39;94990.97;;;20.67;100.00
6134;BME280;3098;42.678;23.364;2023-08-24T01:53:07;95056.03;;;20.99;100.00
6134;BME280;3098;42.678;23.364;2023-08-24T01:55:34;95046.34;;;20.94;100.00
6134;BME280;3098;42.678;23.364;2023-08-24T01:58:04;95048.28;;;20.94;100.00
6134;BME280;3098;42.678;23.364;2023-08-24T02:00:33;95049.81;;;20.95;100.00
6134;BME280;3098;42.678;23.364;2023-08-24T02:03:00;94906.97;;;19.91;100.00
6134;BME280;3098;42.678;23.364;2023-08-24T02:05:27;94995.25;;;20.68;100.00
6134;BME280;3098;42.678;23.364;2023-08-24T02:07:55;95053.91;;;21.15;100.00
6134;BME280;3098;42.678;23.364;2023-08-24T02:10:23;94852.75;;;19.89;100.00
6134;BME280;3098;42.678;23.364;2023-08-24T02:12:51;95024.84;;;21.01;100.00
6134;BME280;3098;42.678;23.364;2023-08-24T02:15:18;95054.03;;;21.26;100.00
6134;BME280;3098;42.678;23.364;2023-08-24T02:17:47;95067.81;;;21.20;100.00
6134;BME280;3098;42.678;23.364;2023-08-24T02:20:16;95010.53;;;20.97;100.00
6134;BME280;3098;42.678;23.364;2023-08-24T02:22:43;95037.34;;;21.16;100.00
6134;BME280;3098;42.678;23.364;2023-08-24T02:25:11;95062.09;;;21.26;100.00
6134;BME280;3098;42.678;23.364;2023-08-24T02:27:39;95064.59;;;21.45;100.00
6134;BME280;3098;42.678;23.364;2023-08-24T02:30:07;95056.66;;;21.66;100.00
6134;BME280;3098;42.678;23.364;2023-08-24T02:32:35;95061.03;;;21.81;100.00
6134;BME280;3098;42.678;23.364;2023-08-24T02:35:06;95014.81;;;21.39;100.00
6134;BME280;3098;42.678;23.364;2023-08-24T02:37:34;95054.34;;;21.64;100.00
6134;BME280;3098;42.678;23.364;2023-08-24T02:40:02;95045.38;;;21.53;100.00
6134;BME280;3098;42.678;23.364;2023-08-24T02:42:31;94919.38;;;20.66;100.00
6134;BME280;3098;42.678;23.364;2023-08-24T02:44:58;95046.50;;;21.49;100.00
6134;BME280;3098;42.678;23.364;2023-08-24T02:47:26;95049.53;;;21.44;100.00
6134;BME280;3098;42.678;23.364;2023-08-24T02:49:53;94978.16;;;20.94;100.00
6134;BME280;3098;42.678;23.364;2023-08-24T02:52:22;95037.34;;;21.16;100.00
6134;BME280;3098;42.678;23.364;2023-08-24T02:54:49;95012.41;;;20.90;100.00
6134;BME280;3098;42.678;23.364;2023-08-24T02:57:17;95033.31;;;21.00;100.00
6134;BME280;3098;42.678;23.364;2023-08-24T02:59:44;95012.78;;;20.88;100.00
6134;BME280;3098;42.678;23.364;2023-08-24T03:02:11;95044.28;;;21.14;100.00
6134;BME280;3098;42.678;23.364;2023-08-24T03:04:39;95047.03;;;21.21;100.00
6134;BME280;3098;42.678;23.364;2023-08-24T03:07:06;95062.44;;;21.20;100.00
6134;BME280;3098;42.678;23.364;2023-08-24T03:09:37;94981.94;;;20.86;100.00
6134;BME280;3098;42.678;23.364;2023-08-24T03:12:05;95011.69;;;20.96;100.00
6134;BME280;3098;42.678;23.364;2023-08-24T03:14:32;95063.16;;;21.14;100.00
6134;BME280;3098;42.678;23.364;2023-08-24T03:16:59;95028.22;;;20.95;100.00
6134;BME280;3098;42.678;23.364;2023-08-24T03:19:26;95052.38;;;21.14;100.00
6134;BME280;3098;42.678;23.364;2023-08-24T03:21:53;94983.28;;;20.66;100.00
6134;BME280;3098;42.678;23.364;2023-08-24T03:24:21;95000.69;;;20.72;100.00
6134;BME280;3098;42.678;23.364;2023-08-24T03:26:49;95003.53;;;20.52;100.00
6134;BME280;3098;42.678;23.364;2023-08-24T03:29:16;94875.31;;;19.81;100.00
6134;BME280;3098;42.678;23.364;2023-08-24T03:31:44;95066.06;;;21.02;100.00
6134;BME280;3098;42.678;23.364;2023-08-24T03:34:11;95077.50;;;20.88;100.00
6134;BME280;3098;42.678;23.364;2023-08-24T03:36:38;95053.31;;;20.62;100.00
6134;BME280;3098;42.678;23.364;2023-08-24T03:39:05;95007.44;;;20.25;100.00
6134;BME280;3098;42.678;23.364;2023-08-24T03:41:32;95003.88;;;20.21;100.00
6134;BME280;3098;42.678;23.364;2023-08-24T03:44:02;95043.50;;;20.47;100.00
6134;BME280;3098;42.678;23.364;2023-08-24T03:46:29;95095.09;;;20.79;100.00
6134;BME280;3098;42.678;23.364;2023-08-24T03:48:56;94958.81;;;19.85;100.00
6134;BME280;3098;42.678;23.364;2023-08-24T03:51:24;95024.38;;;20.26;100.00
6134;BME280;3098;42.678;23.364;2023-08-24T03:53:52;95044.53;;;20.39;100.00
6134;BME280;3098;42.678;23.364;2023-08-24T03:56:19;95062.84;;;20.56;100.00
6134;BME280;3098;42.678;23.364;2023-08-24T03:58:50;95100.13;;;20.80;100.00
6134;BME280;3098;42.678;23.364;2023-08-24T04:01:19;95037.97;;;20.36;100.00
6134;BME280;3098;42.678;23.364;2023-08-24T04:03:49;95103.22;;;20.82;100.00
6134;BME280;3098;42.678;23.364;2023-08-24T04:06:17;95099.78;;;20.85;100.00
6134;BME280;3098;42.678;23.364;2023-08-24T04:08:45;95019.97;;;20.44;100.00
6134;BME280;3098;42.678;23.364;2023-08-24T04:11:12;95101.78;;;20.92;100.00
6134;BME280;3098;42.678;23.364;2023-08-24T04:13:40;95100.13;;;21.13;100.00
6134;BME280;3098;42.678;23.364;2023-08-24T04:16:07;95105.47;;;21.10;100.00
6134;BME280;3098;42.678;23.364;2023-08-24T04:18:36;94945.91;;;19.97;100.00
6134;BME280;3098;42.678;23.364;2023-08-24T04:21:03;95105.28;;;20.96;100.00
6134;BME280;3098;42.678;23.364;2023-08-24T04:23:31;95102.19;;;20.94;100.00
6134;BME280;3098;42.678;23.364;2023-08-24T04:25:59;95092.81;;;21.14;100.00
6134;BME280;3098;42.678;23.364;2023-08-24T04:28:27;95033.25;;;20.59;100.00
6134;BME280;3098;42.678;23.364;2023-08-24T04:30:56;94991.22;;;20.55;100.00
6134;BME280;3098;42.678;23.364;2023-08-24T04:33:23;95028.06;;;20.77;100.00
6134;BME280;3098;42.678;23.364;2023-08-24T04:35:52;95080.06;;;21.11;100.00
6134;BME280;3098;42.678;23.364;2023-08-24T04:38:19;95109.94;;;21.32;100.00
6134;BME280;3098;42.678;23.364;2023-08-24T04:40:49;95012.78;;;20.55;100.00
6134;BME280;3098;42.678;23.364;2023-08-24T04:43:18;95104.06;;;21.19;100.00
6134;BME280;3098;42.678;23.364;2023-08-24T04:45:47;95078.94;;;21.15;100.00
6134;BME280;3098;42.678;23.364;2023-08-24T04:48:14;94924.72;;;20.26;100.00
6134;BME280;3098;42.678;23.364;2023-08-24T04:50:43;95022.25;;;21.08;100.00
6134;BME280;3098;42.678;23.364;2023-08-24T04:53:12;94967.59;;;20.78;100.00
6134;BME280;3098;42.678;23.364;2023-08-24T04:55:40;95099.53;;;21.74;100.00
6134;BME280;3098;42.678;23.364;2023-08-24T04:58:08;95102.66;;;21.76;100.00
6134;BME280;3098;42.678;23.364;2023-08-24T05:00:36;95099.84;;;21.62;100.00
6134;BME280;3098;42.678;23.364;2023-08-24T05:03:04;95018.94;;;21.26;100.00
6134;BME280;3098;42.678;23.364;2023-08-24T05:05:33;95088.41;;;21.83;100.00
6134;BME280;3098;42.678;23.364;2023-08-24T05:08:03;95086.03;;;21.74;100.00
6134;BME280;3098;42.678;23.364;2023-08-24T05:10:33;95054.16;;;21.43;100.00
6134;BME280;3098;42.678;23.364;2023-08-24T05:13:01;95091.84;;;21.76;100.00
6134;BME280;3098;42.678;23.364;2023-08-24T05:15:29;95062.59;;;21.86;100.00
6134;BME280;3098;42.678;23.364;2023-08-24T05:17:56;95130.53;;;22.39;100.00
6134;BME280;3098;42.678;23.364;2023-08-24T05:20:25;95093.75;;;22.23;100.00
6134;BME280;3098;42.678;23.364;2023-08-24T05:22:53;95122.50;;;22.56;100.00
6134;BME280;3098;42.678;23.364;2023-08-24T05:25:22;95011.06;;;22.05;100.00
6134;BME280;3098;42.678;23.364;2023-08-24T05:27:51;94966.38;;;21.56;100.00
6134;BME280;3098;42.678;23.364;2023-08-24T05:30:19;95139.91;;;22.59;100.00
6134;BME280;3098;42.678;23.364;2023-08-24T05:32:51;95067.78;;;22.08;100.00
6134;BME280;3098;42.678;23.364;2023-08-24T05:35:19;95117.63;;;22.14;100.00
6134;BME280;3098;42.678;23.364;2023-08-24T05:37:48;95122.72;;;22.26;100.00
6134;BME280;3098;42.678;23.364;2023-08-24T05:40:16;95144.44;;;22.41;100.00
6134;BME280;3098;42.678;23.364;2023-08-24T05:42:43;95111.84;;;22.16;100.00
6134;BME280;3098;42.678;23.364;2023-08-24T05:45:12;95125.81;;;22.25;100.00
6134;BME280;3098;42.678;23.364;2023-08-24T05:47:39;95139.00;;;22.37;100.00
6134;BME280;3098;42.678;23.364;2023-08-24T05:50:07;95134.88;;;22.57;100.00
6134;BME280;3098;42.678;23.364;2023-08-24T05:52:37;95035.03;;;22.13;100.00
6134;BME280;3098;42.678;23.364;2023-08-24T05:55:04;95148.34;;;23.26;100.00
6134;BME280;3098;42.678;23.364;2023-08-24T05:57:32;95096.97;;;23.40;100.00
6134;BME280;3098;42.678;23.364;2023-08-24T06:00:00;95146.84;;;23.42;100.00
6134;BME280;3098;42.678;23.364;2023-08-24T06:02:30;95115.19;;;23.82;99.50
6134;BME280;3098;42.678;23.364;2023-08-24T06:04:57;95143.44;;;24.48;97.72
6134;BME280;3098;42.678;23.364;2023-08-24T06:07:24;95153.84;;;25.71;91.17
6134;BME280;3098;42.678;23.364;2023-08-24T06:09:52;95146.44;;;26.68;85.55
6134;BME280;3098;42.678;23.364;2023-08-24T06:12:19;95056.06;;;27.17;78.07
6134;BME280;3098;42.678;23.364;2023-08-24T06:14:46;95153.34;;;26.39;79.49
6134;BME280;3098;42.678;23.364;2023-08-24T06:17:14;95155.63;;;26.44;82.01
6134;BME280;3098;42.678;23.364;2023-08-24T06:19:43;94923.31;;;25.70;80.03
6134;BME280;3098;42.678;23.364;2023-08-24T06:22:10;95145.47;;;27.22;78.64
6134;BME280;3098;42.678;23.364;2023-08-24T06:24:39;94966.84;;;26.41;76.63
6134;BME280;3098;42.678;23.364;2023-08-24T06:27:06;95071.44;;;27.84;73.82
6134;BME280;3098;42.678;23.364;2023-08-24T06:29:33;95030.72;;;28.20;71.58
6134;BME280;3098;42.678;23.364;2023-08-24T06:32:00;95148.88;;;29.78;69.11
6134;BME280;3098;42.678;23.364;2023-08-24T06:34:28;95154.25;;;31.65;62.05
6134;BME280;3098;42.678;23.364;2023-08-24T06:37:00;95151.63;;;34.01;54.06
6134;BME280;3098;42.678;23.364;2023-08-24T06:39:27;95109.06;;;33.84;51.52
6134;BME280;3098;42.678;23.364;2023-08-24T06:41:55;95150.56;;;33.46;50.92
6134;BME280;3098;42.678;23.364;2023-08-24T06:44:23;95132.66;;;32.05;53.83
6134;BME280;3098;42.678;23.364;2023-08-24T06:46:50;95119.84;;;30.65;56.48
6134;BME280;3098;42.678;23.364;2023-08-24T06:49:17;94999.47;;;28.44;62.34
6134;BME280;3098;42.678;23.364;2023-08-24T06:51:45;95124.13;;;29.49;62.99
6134;BME280;3098;42.678;23.364;2023-08-24T06:54:14;95148.09;;;29.78;63.44
6134;BME280;3098;42.678;23.364;2023-08-24T06:56:41;95146.56;;;29.41;64.21
6134;BME280;3098;42.678;23.364;2023-08-24T06:59:09;95104.44;;;29.02;65.13
6134;BME280;3098;42.678;23.364;2023-08-24T07:01:38;95109.03;;;29.45;63.65
6134;BME280;3098;42.678;23.364;2023-08-24T07:04:06;94962.81;;;29.85;60.13
6134;BME280;3098;42.678;23.364;2023-08-24T07:06:33;95143.47;;;31.04;59.28
6134;BME280;3098;42.678;23.364;2023-08-24T07:09:01;95142.41;;;31.80;55.63
6134;BME280;3098;42.678;23.364;2023-08-24T07:11:36;95048.19;;;31.74;54.27
6134;BME280;3098;42.678;23.364;2023-08-24T07:14:04;94902.28;;;31.07;52.21
6134;BME280;3098;42.678;23.364;2023-08-24T07:16:31;95150.47;;;32.13;53.14
6134;BME280;3098;42.678;23.364;2023-08-24T07:18:59;95104.56;;;31.50;53.63
6134;BME280;3098;42.678;23.364;2023-08-24T07:21:26;95170.44;;;31.47;54.67
6134;BME280;3098;42.678;23.364;2023-08-24T07:23:53;95094.66;;;31.27;54.92
6134;BME280;3098;42.678;23.364;2023-08-24T07:26:21;95113.00;;;30.86;55.07
6134;BME280;3098;42.678;23.364;2023-08-24T07:28:52;95138.25;;;30.32;56.99
6134;BME280;3098;42.678;23.364;2023-08-24T07:31:19;95124.88;;;28.94;62.03
6134;BME280;3098;42.678;23.364;2023-08-24T07:33:47;95063.00;;;29.76;59.35
6134;BME280;3098;42.678;23.364;2023-08-24T07:36:15;95131.31;;;30.89;58.63
6134;BME280;3098;42.678;23.364;2023-08-24T07:38:42;95126.09;;;31.23;56.48
6134;BME280;3098;42.678;23.364;2023-08-24T07:41:11;95137.31;;;31.41;55.48
6134;BME280;3098;42.678;23.364;2023-08-24T07:43:39;95057.41;;;31.80;54.08
6134;BME280;3098;42.678;23.364;2023-08-24T07:46:07;95141.28;;;32.88;51.19
6134;BME280;3098;42.678;23.364;2023-08-24T07:48:35;95141.34;;;32.97;49.43
6134;BME280;3098;42.678;23.364;2023-08-24T07:51:03;95102.78;;;33.53;47.32
6134;BME280;3098;42.678;23.364;2023-08-24T07:53:30;95040.41;;;33.81;44.83
6134;BME280;3098;42.678;23.364;2023-08-24T07:55:59;95117.09;;;34.95;44.38
6134;BME280;3098;42.678;23.364;2023-08-24T07:58:27;95078.00;;;35.42;41.84
6134;BME280;3098;42.678;23.364;2023-08-24T08:00:58;95134.69;;;36.03;41.10
6134;BME280;3098;42.678;23.364;2023-08-24T08:03:28;95143.47;;;36.58;39.74
6134;BME280;3098;42.678;23.364;2023-08-24T08:05:56;95135.84;;;36.53;37.95
6134;BME280;3098;42.678;23.364;2023-08-24T08:08:24;95138.50;;;36.38;37.87
6134;BME280;3098;42.678;23.364;2023-08-24T08:10:57;95139.66;;;36.94;37.42
6134;BME280;3098;42.678;23.364;2023-08-24T08:13:25;94880.41;;;35.53;38.12
6134;BME280;3098;42.678;23.364;2023-08-24T08:15:53;94863.03;;;36.00;37.58
6134;BME280;3098;42.678;23.364;2023-08-24T08:18:21;94988.94;;;37.13;36.35
6134;BME280;3098;42.678;23.364;2023-08-24T08:20:51;95035.94;;;37.71;35.45
6134;BME280;3098;42.678;23.364;2023-08-24T08:23:19;95136.41;;;38.96;33.94
6134;BME280;3098;42.678;23.364;2023-08-24T08:25:46;95137.06;;;39.12;33.20
6134;BME280;3098;42.678;23.364;2023-08-24T08:28:14;95034.50;;;38.31;34.12
6134;BME280;3098;42.678;23.364;2023-08-24T08:30:42;95087.06;;;39.83;31.51
6134;BME280;3098;42.678;23.364;2023-08-24T08:33:10;94966.69;;;38.26;32.70
6134;BME280;3098;42.678;23.364;2023-08-24T08:35:39;95110.31;;;39.08;32.64
6134;BME280;3098;42.678;23.364;2023-08-24T08:38:08;95117.25;;;38.38;33.80
6134;BME280;3098;42.678;23.364;2023-08-24T08:40:37;95075.81;;;38.69;32.89
6134;BME280;3098;42.678;23.364;2023-08-24T08:43:05;94862.47;;;35.58;34.38
6134;BME280;3098;42.678;23.364;2023-08-24T08:45:32;95116.38;;;35.82;36.96
6134;BME280;3098;42.678;23.364;2023-08-24T08:48:01;95121.09;;;37.62;35.49
6134;BME280;3098;42.678;23.364;2023-08-24T08:50:29;95102.56;;;35.12;37.50
6134;BME280;3098;42.678;23.364;2023-08-24T08:52:56;94940.63;;;34.35;38.07
6134;BME280;3098;42.678;23.364;2023-08-24T08:55:25;94905.03;;;34.91;37.58
6134;BME280;3098;42.678;23.364;2023-08-24T08:57:56;95098.16;;;37.90;35.14
6134;BME280;3098;42.678;23.364;2023-08-24T09:00:24;95097.28;;;38.94;33.40
6134;BME280;3098;42.678;23.364;2023-08-24T09:02:53;95030.50;;;40.23;30.93
6134;BME280;3098;42.678;23.364;2023-08-24T09:05:21;94961.16;;;40.62;29.10
6134;BME280;3098;42.678;23.364;2023-08-24T09:07:53;95041.72;;;41.26;28.75
6134;BME280;3098;42.678;23.364;2023-08-24T09:10:21;95034.28;;;40.90;29.28
6134;BME280;3098;42.678;23.364;2023-08-24T09:12:50;95028.91;;;39.69;29.87
6134;BME280;3098;42.678;23.364;2023-08-24T09:15:24;94817.78;;;37.15;31.99
6134;BME280;3098;42.678;23.364;2023-08-24T09:17:52;95074.31;;;38.13;32.46
6134;BME280;3098;42.678;23.364;2023-08-24T09:20:21;94995.66;;;38.91;31.41
6134;BME280;3098;42.678;23.364;2023-08-24T09:22:48;94949.31;;;39.23;30.56
6134;BME280;3098;42.678;23.364;2023-08-24T09:25:19;94931.19;;;40.12;29.38
6134;BME280;3098;42.678;23.364;2023-08-24T09:27:57;95042.66;;;37.50;33.37
6134;BME280;3098;42.678;23.364;2023-08-24T09:30:29;94995.06;;;39.65;29.99
6134;BME280;3098;42.678;23.364;2023-08-24T09:33:01;95006.41;;;39.35;30.26
6134;BME280;3098;42.678;23.364;2023-08-24T09:35:35;95009.09;;;40.35;28.94
6134;BME280;3098;42.678;23.364;2023-08-24T09:38:16;95049.56;;;39.36;30.77
6134;BME280;3098;42.678;23.364;2023-08-24T09:40:45;94896.41;;;37.83;31.52
6134;BME280;3098;42.678;23.364;2023-08-24T09:43:21;95009.66;;;38.57;31.44
6134;BME280;3098;42.678;23.364;2023-08-24T09:45:50;94908.66;;;38.37;30.10
6134;BME280;3098;42.678;23.364;2023-08-24T09:48:19;95004.88;;;38.17;31.29
6134;BME280;3098;42.678;23.364;2023-08-24T09:50:46;94965.91;;;38.66;30.52
6134;BME280;3098;42.678;23.364;2023-08-24T09:53:18;95032.50;;;38.11;31.41
6134;BME280;3098;42.678;23.364;2023-08-24T09:55:52;95027.25;;;36.91;32.75
6134;BME280;3098;42.678;23.364;2023-08-24T09:58:24;94997.31;;;37.97;31.33
6134;BME280;3098;42.678;23.364;2023-08-24T10:00:55;94966.66;;;37.66;31.40
6134;BME280;3098;42.678;23.364;2023-08-24T10:03:25;94996.88;;;40.15;29.30
6134;BME280;3098;42.678;23.364;2023-08-24T10:05:54;94959.97;;;40.09;28.23
6134;BME280;3098;42.678;23.364;2023-08-24T10:08:26;95022.00;;;40.43;28.15
6134;BME280;3098;42.678;23.364;2023-08-24T10:10:56;95020.75;;;41.53;27.43
6134;BME280;3098;42.678;23.364;2023-08-24T10:13:31;95004.91;;;40.08;28.48
6134;BME280;3098;42.678;23.364;2023-08-24T10:16:04;95000.28;;;39.99;28.98
6134;BME280;3098;42.678;23.364;2023-08-24T10:18:31;95000.66;;;39.70;28.28
6134;BME280;3098;42.678;23.364;2023-08-24T10:20:59;94990.72;;;39.63;28.47
6134;BME280;3098;42.678;23.364;2023-08-24T10:23:29;94855.00;;;38.15;29.06
6134;BME280;3098;42.678;23.364;2023-08-24T10:25:57;94948.22;;;38.64;29.06
6134;BME280;3098;42.678;23.364;2023-08-24T10:28:28;94979.91;;;38.77;29.56
6134;BME280;3098;42.678;23.364;2023-08-24T10:30:58;95009.06;;;38.93;29.41
6134;BME280;3098;42.678;23.364;2023-08-24T10:33:26;94845.59;;;37.86;29.87
6134;BME280;3098;42.678;23.364;2023-08-24T10:35:54;94987.59;;;37.52;31.17
6134;BME280;3098;42.678;23.364;2023-08-24T10:38:25;94903.09;;;36.19;32.01
6134;BME280;3098;42.678;23.364;2023-08-24T10:40:54;94975.16;;;36.07;31.92
6134;BME280;3098;42.678;23.364;2023-08-24T10:43:22;94992.84;;;35.91;32.44
6134;BME280;3098;42.678;23.364;2023-08-24T10:46:01;94847.50;;;34.15;34.15
6134;BME280;3098;42.678;23.364;2023-08-24T10:48:30;94912.25;;;34.80;34.52
6134;BME280;3098;42.678;23.364;2023-08-24T10:51:16;94977.66;;;34.16;35.38
6134;BME280;3098;42.678;23.364;2023-08-24T10:53:46;94932.91;;;33.57;37.11
6134;BME280;3098;42.678;23.364;2023-08-24T10:56:15;94979.88;;;33.32;38.93
6134;BME280;3098;42.678;23.364;2023-08-24T10:58:44;94978.91;;;33.17;39.22
6134;BME280;3098;42.678;23.364;2023-08-24T11:01:16;94978.59;;;33.24;39.96
6134;BME280;3098;42.678;23.364;2023-08-24T11:03:49;94982.91;;;32.72;41.77
6134;BME280;3098;42.678;23.364;2023-08-24T11:06:18;94975.69;;;31.38;43.63
6134;BME280;3098;42.678;23.364;2023-08-24T11:08:47;94978.88;;;31.23;44.75
6134;BME280;3098;42.678;23.364;2023-08-24T11:11:19;94975.91;;;31.43;45.10
6134;BME280;3098;42.678;23.364;2023-08-24T11:14:15;94967.03;;;31.26;45.61
6134;BME280;3098;42.678;23.364;2023-08-24T11:16:46;94846.16;;;30.49;45.80
6134;BME280;3098;42.678;23.364;2023-08-24T11:19:15;94967.16;;;31.10;46.26
6134;BME280;3098;42.678;23.364;2023-08-24T11:21:44;94934.19;;;30.60;47.30
6134;BME280;3098;42.678;23.364;2023-08-24T11:24:13;94966.28;;;31.13;46.61
6134;BME280;3098;42.678;23.364;2023-08-24T11:26:42;94818.25;;;30.41;46.39
6134;BME280;3098;42.678;23.364;2023-08-24T11:29:09;94963.75;;;31.31;46.46
6134;BME280;3098;42.678;23.364;2023-08-24T11:31:37;94839.47;;;30.50;46.57
6134;BME280;3098;42.678;23.364;2023-08-24T11:34:07;94795.94;;;30.01;46.84
6134;BME280;3098;42.678;23.364;2023-08-24T11:36:47;94902.63;;;30.43;47.90
6134;BME280;3098;42.678;23.364;2023-08-24T11:39:16;94923.44;;;30.40;49.24
6134;BME280;3098;42.678;23.364;2023-08-24T11:41:45;94907.25;;;30.17;50.54
6134;BME280;3098;42.678;23.364;2023-08-24T11:44:14;94869.16;;;29.36;52.79
6134;BME280;3098;42.678;23.364;2023-08-24T11:46:43;94782.97;;;28.71;53.44
6134;BME280;3098;42.678;23.364;2023-08-24T11:49:13;94961.97;;;29.88;54.55
6134;BME280;3098;42.678;23.364;2023-08-24T11:51:41;94960.84;;;29.70;55.18
6134;BME280;3098;42.678;23.364;2023-08-24T11:54:09;94809.56;;;28.99;55.51
6134;BME280;3098;42.678;23.364;2023-08-24T11:56:41;94886.84;;;29.32;55.04
6134;BME280;3098;42.678;23.364;2023-08-24T11:59:12;94899.81;;;29.28;55.21
6134;BME280;3098;42.678;23.364;2023-08-24T12:01:41;94729.38;;;27.92;56.70
6134;BME280;3098;42.678;23.364;2023-08-24T12:04:10;94940.25;;;29.49;57.32
6134;BME280;3098;42.678;23.364;2023-08-24T12:06:39;94893.56;;;29.11;57.41
6134;BME280;3098;42.678;23.364;2023-08-24T12:09:08;94932.34;;;29.54;56.30
6134;BME280;3098;42.678;23.364;2023-08-24T12:11:37;94861.19;;;29.09;56.60
6134;BME280;3098;42.678;23.364;2023-08-24T12:14:05;94831.69;;;28.88;56.88
6134;BME280;3098;42.678;23.364;2023-08-24T12:16:35;94843.19;;;28.80;58.14
6134;BME280;3098;42.678;23.364;2023-08-24T12:19:07;94909.94;;;29.43;56.31
6134;BME280;3098;42.678;23.364;2023-08-24T12:21:36;94834.94;;;28.83;57.38
6134;BME280;3098;42.678;23.364;2023-08-24T12:24:05;94877.50;;;29.29;56.71
6134;BME280;3098;42.678;23.364;2023-08-24T12:26:37;94752.50;;;28.56;56.10
6134;BME280;3098;42.678;23.364;2023-08-24T12:29:07;94601.41;;;27.69;54.88
6134;BME280;3098;42.678;23.364;2023-08-24T12:31:36;94890.69;;;29.79;54.71
6134;BME280;3098;42.678;23.364;2023-08-24T12:34:05;94924.56;;;30.27;53.08
6134;BME280;3098;42.678;23.364;2023-08-24T12:36:37;94899.94;;;30.27;53.20
6134;BME280;3098;42.678;23.364;2023-08-24T12:39:11;94944.28;;;30.63;52.44
6134;BME280;3098;42.678;23.364;2023-08-24T12:41:38;94939.94;;;30.91;52.13
6134;BME280;3098;42.678;23.364;2023-08-24T12:44:06;94940.97;;;31.09;51.17
6134;BME280;3098;42.678;23.364;2023-08-24T12:46:34;94827.75;;;30.37;50.92
6134;BME280;3098;42.678;23.364;2023-08-24T12:49:01;94926.44;;;30.71;52.26
6134;BME280;3098;42.678;23.364;2023-08-24T12:51:29;94966.03;;;30.95;51.17
6134;BME280;3098;42.678;23.364;2023-08-24T12:53:56;94781.66;;;29.24;50.98
6134;BME280;3098;42.678;23.364;2023-08-24T12:56:25;94905.47;;;29.82;51.54
6134;BME280;3098;42.678;23.364;2023-08-24T12:58:53;94822.03;;;29.61;50.91
6134;BME280;3098;42.678;23.364;2023-08-24T13:01:21;94890.94;;;30.13;51.28
6134;BME280;3098;42.678;23.364;2023-08-24T13:03:48;94928.53;;;29.81;51.95
6134;BME280;3098;42.678;23.364;2023-08-24T13:06:17;94863.41;;;28.98;52.95
6134;BME280;3098;42.678;23.364;2023-08-24T13:08:45;94816.59;;;28.48;53.50
6134;BME280;3098;42.678;23.364;2023-08-24T13:11:13;94779.91;;;28.33;54.50
6134;BME280;3098;42.678;23.364;2023-08-24T13:13:42;94889.28;;;29.26;54.73
6134;BME280;3098;42.678;23.364;2023-08-24T13:16:11;94809.72;;;28.60;57.83